Thunder radar more information blitzortung!


Radar de pluja more information rain snow radar


Visita la nostra xarxa de llocs de meteo:

Template documentation
and downloads

And another site



No particular awareness of the weather is required.    There are no Weather-warnings

Pagina Historial Weather Underground text

Diari Resum Desembre 9, 2017 Unitats:  Mètric    Imperial   Tant
« Previous Dia
SegĂźent Dia »
Diari Setmana Mensual Anual Personalitzada
  Maxima: Minima: Media:
Temperatura: -17.8 °C -16.8 °C -13.8 °C
Punt de rosada: -17.8 °C -19.3 °C -17.7 °C
Humitat: Humidity % 53 % 61 %
Wind Speed: 0 km/h 0 km/h 6 km/h
RĂ fegues de vent: 0 km/h - -
Vent:- - SE
Pression baro: 0 hPa 34496.6 hPa -
Precipitacions: 0 mm    
Historical Graphs
 
 
Dades de taula per Desembre 9, 2017
Temps Temperatura Punt de rosada Pression baro Vent Wind Speed RĂ fegues de vent Humitat Rainfall Rate (Hourly)
-17.8 °C -17.8 °C 0 hPa Calm     Humidity % 0 mm
00:03 -15.4 °C -18.4 °C 34533.8 hPa NW 4.2 km/h   68 % 0 mm
00:10 -16.3 °C -18.8 °C 34533.8 hPa Calm     72 % 0 mm
00:20 -16.4 °C -19.1 °C 34533.8 hPa West 2.6 km/h 5.1 km/h 71 % 0 mm
00:30 -16.4 °C -18.9 °C 34533.8 hPa Calm   5.1 km/h 72 % 0 mm
00:40 -16.4 °C -18.9 °C 34533.8 hPa Calm   2.6 km/h 72 % 0 mm
00:50 -16.4 °C -18.9 °C 34533.8 hPa West 2.6 km/h 5.1 km/h 72 % 0 mm
01:00 -16.4 °C -18.9 °C 34533.8 hPa NW 2.6 km/h 5.1 km/h 72 % 0 mm
01:20 -16.6 °C -19.1 °C 34533.8 hPa Calm   2.6 km/h 72 % 0 mm
01:30 -16.6 °C -19.1 °C 34533.8 hPa North 2.6 km/h 2.6 km/h 72 % 0 mm
01:40 -16.7 °C -19.2 °C 34533.8 hPa NW 2.6 km/h 5.1 km/h 72 % 0 mm
01:50 -16.6 °C -19.1 °C 34567.7 hPa NW 5.1 km/h 5.1 km/h 72 % 0 mm
02:00 -16.7 °C -19.2 °C 34567.7 hPa Calm   5.1 km/h 72 % 0 mm
02:10 -16.8 °C -19.3 °C 34567.7 hPa NW 2.6 km/h 2.6 km/h 72 % 0 mm
02:20 -16.7 °C -19.2 °C 34601.5 hPa NW 2.6 km/h 5.1 km/h 72 % 0 mm
02:30 -16.7 °C -19.2 °C 34601.5 hPa NNE 2.6 km/h 7.7 km/h 72 % 0 mm
03:00 -16.4 °C -18.9 °C 34601.5 hPa NNW 2.6 km/h 5.1 km/h 72 % 0 mm
03:10 -16.3 °C -18.8 °C 34601.5 hPa Calm   2.6 km/h 72 % 0 mm
03:20 -15.9 °C -18.4 °C 34601.5 hPa NNE 2.6 km/h 7.7 km/h 72 % 0 mm
09:23 -15.7 °C -18.3 °C 34601.5 hPa NNE 3.7 km/h 3.7 km/h 72 % 0 mm
09:25 -15.6 °C -18.2 °C 34601.5 hPa NNE 9 km/h 9 km/h 72 % 0 mm
09:35 -15.3 °C -18.1 °C 34601.5 hPa ENE 11.9 km/h 11.9 km/h 70 % 0 mm
09:40 -15.3 °C -18.1 °C 34601.5 hPa WSW 11.9 km/h 11.9 km/h 70 % 0 mm
09:50 -14.8 °C -17.6 °C 34567.7 hPa South 6 km/h 6 km/h 70 % 0 mm
09:55 -14.6 °C -17.6 °C 34567.7 hPa ENE 4.2 km/h 4.2 km/h 69 % 0 mm
10:05 -14.6 °C -17.6 °C 34601.5 hPa WNW 6 km/h 6 km/h 68 % 0 mm
10:15 -14.4 °C -17.6 °C 34601.5 hPa ENE 5.1 km/h 5.1 km/h 67 % 0 mm
10:20 -14.4 °C -17.6 °C 34601.5 hPa NNW 11.9 km/h 11.9 km/h 67 % 0 mm
10:25 -14.3 °C -17.4 °C 34601.5 hPa ENE 9 km/h 9 km/h 67 % 0 mm
10:40 -13.9 °C -17.3 °C 34635.4 hPa East 6 km/h 6 km/h 65 % 0 mm
10:45 -14.2 °C -17.6 °C 34635.4 hPa NNE 15 km/h 15 km/h 65 % 0 mm
10:55 -14.2 °C -17.7 °C 34635.4 hPa NNE 9 km/h 9 km/h 64 % 0 mm
11:00 -14.1 °C -17.6 °C 34635.4 hPa NNE 7.6 km/h 7.6 km/h 64 % 0 mm
11:05 -14.1 °C -17.6 °C 34635.4 hPa WSW 9 km/h 9 km/h 64 % 0 mm
11:10 -14 °C -17.7 °C 34635.4 hPa NNE 6 km/h 6 km/h 63 % 0 mm
11:15 -13.9 °C -17.6 °C 34635.4 hPa East 9 km/h 9 km/h 63 % 0 mm
11:20 -13.9 °C -17.6 °C 34635.4 hPa ENE 9.3 km/h 9.3 km/h 63 % 0 mm
11:25 -13.9 °C -17.6 °C 34635.4 hPa NNE 9 km/h 9 km/h 63 % 0 mm
11:26 -13.9 °C -17.6 °C 34635.4 hPa NNE 9 km/h 9 km/h 63 % 0 mm
11:31 -13.9 °C -17.7 °C 34635.4 hPa ENE 11.9 km/h 11.9 km/h 62 % 0 mm
11:36 -13.8 °C -17.6 °C 34635.4 hPa NNE 11.9 km/h 11.9 km/h 62 % 0 mm
11:41 -13.6 °C -17.4 °C 34635.4 hPa North 9 km/h 9 km/h 62 % 0 mm
11:46 -13.6 °C -17.3 °C 34635.4 hPa NE 8.5 km/h 8.5 km/h 62 % 0 mm
11:51 -13.4 °C -17.2 °C 34635.4 hPa ESE 6 km/h 6 km/h 62 % 0 mm
11:56 -13.3 °C -17.3 °C 34635.4 hPa NNE 11.9 km/h 11.9 km/h 61 % 0 mm
12:01 -13.4 °C -17.4 °C 34601.5 hPa ENE 15 km/h 15 km/h 61 % 0 mm
12:06 -13.3 °C -17.2 °C 34601.5 hPa NE 11.1 km/h 11.1 km/h 61 % 0 mm
12:11 -13.3 °C -17.2 °C 34601.5 hPa NNE 15 km/h 15 km/h 61 % 0 mm
12:16 -13.2 °C -17.2 °C 34601.5 hPa WNW 9 km/h 9 km/h 60 % 0 mm
12:21 -13.1 °C -17.1 °C 34601.5 hPa ENE 9.3 km/h 9.3 km/h 60 % 0 mm
12:26 -13 °C -17.1 °C 34601.5 hPa ENE 8.5 km/h 8.5 km/h 60 % 0 mm
12:31 -13 °C -17.2 °C 34601.5 hPa NNE 9 km/h 9 km/h 59 % 0 mm
12:36 -12.9 °C -17.1 °C 34601.5 hPa NE 11.9 km/h 11.9 km/h 59 % 0 mm
12:41 -12.8 °C -17.1 °C 34601.5 hPa NNE 10.3 km/h 10.3 km/h 59 % 0 mm
12:46 -12.8 °C -17.1 °C 34601.5 hPa North 11.1 km/h 11.1 km/h 58 % 0 mm
12:56 -12.6 °C -17 °C 34601.5 hPa NNE 6 km/h 6 km/h 58 % 0 mm
13:01 -12.4 °C -16.8 °C 34601.5 hPa NNE 6.3 km/h 6.3 km/h 58 % 0 mm
13:06 -12.6 °C -17.1 °C 34601.5 hPa ENE 11.9 km/h 11.9 km/h 57 % 0 mm
13:11 -12.6 °C -17.3 °C 34601.5 hPa ENE 11.9 km/h 11.9 km/h 56 % 0 mm
13:16 -12.5 °C -17 °C 34601.5 hPa ENE 6 km/h 6 km/h 57 % 0 mm
13:21 -12.3 °C -16.8 °C 34601.5 hPa ENE 9 km/h 9 km/h 57 % 0 mm
13:26 -12.3 °C -16.9 °C 34601.5 hPa ENE 6 km/h 6 km/h 56 % 0 mm
13:31 -12.2 °C -16.8 °C 34601.5 hPa ENE 3.1 km/h   56 % 0 mm
13:36 -12.2 °C -17 °C 34601.5 hPa ESE 11.9 km/h 11.9 km/h 55 % 0 mm
13:41 -12.3 °C -17.1 °C 34601.5 hPa ESE 9 km/h 9 km/h 55 % 0 mm
13:46 -12.3 °C -17.1 °C 34601.5 hPa ESE 11.9 km/h 11.9 km/h 55 % 0 mm
13:51 -12.3 °C -17.1 °C 34601.5 hPa ESE 8.5 km/h 8.5 km/h 55 % 0 mm
14:00 -13.8 °C -18.1 °C 34496.6 hPa Calm     58 % 0 mm
14:01 -12.2 °C -17 °C 34601.5 hPa NE 6.3 km/h 6.8 km/h 55 % 0 mm
14:06 -12.3 °C -17.1 °C 34601.5 hPa SE 11.9 km/h 11.9 km/h 55 % 0 mm
14:10 -13.9 °C -18.2 °C 34533.8 hPa Calm     58 % 0 mm
14:14 -12.2 °C -17.2 °C 34567.7 hPa ESE 11.9 km/h 11.9 km/h 54 % 0 mm
14:29 -12.1 °C -17.1 °C 34567.7 hPa East 11.9 km/h 11.9 km/h 54 % 0 mm
14:30 -14.2 °C -18.3 °C 34496.6 hPa NNE 2.6 km/h 5.1 km/h 59 % 0 mm
14:34 -11.9 °C -16.9 °C 34567.7 hPa South 9 km/h 9 km/h 54 % 0 mm
14:40 -14.2 °C -18.4 °C 34533.8 hPa Calm   5.1 km/h 59 % 0 mm
14:44 -11.8 °C -16.9 °C 34567.7 hPa SSE 9 km/h 9 km/h 53 % 0 mm
14:49 -11.7 °C -16.8 °C 34567.7 hPa SSE 11.9 km/h 11.9 km/h 53 % 0 mm
14:50 -14.4 °C -18.5 °C 34533.8 hPa NNW 2.6 km/h 5.1 km/h 59 % 0 mm
14:59 -11.6 °C -16.7 °C 34533.8 hPa SE 11.9 km/h 11.9 km/h 53 % 0 mm
15:00 -14.6 °C -18.6 °C 34533.8 hPa Calm   5.1 km/h 60 % 0 mm
15:04 -11.6 °C -16.7 °C 34533.8 hPa ESE 16.1 km/h 16.1 km/h 53 % 0 mm
15:09 -11.7 °C -16.8 °C 34533.8 hPa ENE 12.7 km/h 12.7 km/h 53 % 0 mm
15:10 -14.7 °C -18.5 °C 34533.8 hPa Calm     61 % 0 mm
15:14 -11.7 °C -16.8 °C 34567.7 hPa SE 15 km/h 15 km/h 53 % 0 mm
15:19 -11.9 °C -17 °C 34567.7 hPa East 20.9 km/h 20.9 km/h 53 % 0 mm
15:20 -14.7 °C -18.5 °C 34533.8 hPa West 2.6 km/h 2.6 km/h 61 % 0 mm
15:24 -12 °C -17.1 °C 34567.7 hPa ESE 20.9 km/h 20.9 km/h 53 % 0 mm
15:30 -14.7 °C -18.4 °C 34533.8 hPa Calm   2.6 km/h 62 % 0 mm
15:34 -12.1 °C -17.1 °C 34567.7 hPa ESE 15 km/h 15 km/h 54 % 0 mm
15:39 -12.1 °C -17.1 °C 34567.7 hPa East 11.9 km/h 11.9 km/h 54 % 0 mm
15:40 -14.6 °C -18.3 °C 34533.8 hPa WSW 2.6 km/h 5.1 km/h 62 % 0 mm
15:44 -12.1 °C -17 °C 34567.7 hPa East 6.8 km/h 7.6 km/h 54 % 0 mm
15:49 -12.1 °C -17 °C 34567.7 hPa NNE 9 km/h 9 km/h 54 % 0 mm
15:50 -14.6 °C -18.3 °C 34533.8 hPa SW 2.6 km/h 5.1 km/h 62 % 0 mm
15:54 -12 °C -16.8 °C 34567.7 hPa ENE 9 km/h 9 km/h 55 % 0 mm
15:59 -12.1 °C -16.9 °C 34567.7 hPa ESE 9 km/h 9 km/h 55 % 0 mm
16:00 -14.5 °C -18.2 °C 34533.8 hPa Calm   5.1 km/h 62 % 0 mm
16:04 -12.1 °C -16.7 °C 34567.7 hPa ENE 6 km/h 6 km/h 56 % 0 mm
16:09 -12.1 °C -16.7 °C 34567.7 hPa ENE 9 km/h 9 km/h 56 % 0 mm
16:10 -14.5 °C -18.1 °C 34533.8 hPa Calm     63 % 0 mm
16:19 -12 °C -16.8 °C 34567.7 hPa ESE 9 km/h 9 km/h 55 % 0 mm
16:20 -14.5 °C -18.1 °C 34533.8 hPa Calm   2.6 km/h 63 % 0 mm
16:24 -12 °C -16.8 °C 34567.7 hPa ENE 6 km/h 6 km/h 55 % 0 mm
16:29 -11.9 °C -16.8 °C 34533.8 hPa NE 6 km/h 6 km/h 55 % 0 mm
16:39 -11.9 °C -16.8 °C 34533.8 hPa East 5.1 km/h 5.1 km/h 55 % 0 mm
16:44 -12 °C -16.7 °C 34567.7 hPa NNE 6 km/h 6 km/h 56 % 0 mm
16:49 -12 °C -16.7 °C 34567.7 hPa NE 8 km/h 8 km/h 56 % 0 mm
16:54 -12.1 °C -16.7 °C 34567.7 hPa NE 6.8 km/h 6.8 km/h 56 % 0 mm
16:59 -12.1 °C -16.8 °C 34567.7 hPa ENE 6 km/h 6 km/h 56 % 0 mm
17:04 -12.2 °C -16.8 °C 34567.7 hPa ENE 3.1 km/h   56 % 0 mm
17:14 -12.2 °C -16.7 °C 34533.8 hPa WSW 6 km/h 6 km/h 57 % 0 mm
17:19 -12.3 °C -16.8 °C 34533.8 hPa West 6 km/h 6 km/h 57 % 0 mm
17:24 -12.4 °C -16.9 °C 34533.8 hPa West 3.1 km/h 3.1 km/h 57 % 0 mm
17:29 -12.5 °C -17 °C 34567.7 hPa SW 3.1 km/h 3.1 km/h 57 % 0 mm
17:34 -12.6 °C -17.1 °C 34567.7 hPa SW 3.7 km/h   57 % 0 mm
17:39 -12.7 °C -17.2 °C 34567.7 hPa Calm     57 % 0 mm
17:49 -12.8 °C -17.3 °C 34533.8 hPa WSW 3.1 km/h   57 % 0 mm
17:59 -12.9 °C -17.6 °C 34533.8 hPa WSW 3.1 km/h 3.1 km/h 56 % 0 mm
18:04 -13.1 °C -17.7 °C 34533.8 hPa SW 4.2 km/h 4.2 km/h 56 % 0 mm
18:09 -13.1 °C -17.7 °C 34533.8 hPa SW 3.1 km/h 3.1 km/h 56 % 0 mm
18:14 -13.2 °C -17.7 °C 34533.8 hPa Calm     57 % 0 mm
18:20 -13.3 °C -17.7 °C 34533.8 hPa SW 3.1 km/h 3.7 km/h 57 % 0 mm
18:25 -13.3 °C -17.8 °C 34533.8 hPa WSW 4.2 km/h   57 % 0 mm
18:30 -13.3 °C -17.8 °C 34533.8 hPa WSW 6 km/h 6 km/h 57 % 0 mm
18:35 -13.4 °C -17.8 °C 34533.8 hPa WSW 3.1 km/h   57 % 0 mm
18:45 -13.6 °C -18 °C 34496.6 hPa WSW 2.3 km/h   57 % 0 mm
18:50 -13.6 °C -18 °C 34496.6 hPa SW 6 km/h 6 km/h 57 % 0 mm
18:55 -13.6 °C -18 °C 34496.6 hPa WSW 3.1 km/h 3.1 km/h 57 % 0 mm
19:00 -13.6 °C -17.9 °C 34533.8 hPa SW 3.1 km/h 3.1 km/h 58 % 0 mm
19:05 -13.6 °C -17.9 °C 34533.8 hPa SW 3.1 km/h 3.1 km/h 58 % 0 mm
19:10 -13.7 °C -17.9 °C 34533.8 hPa WSW 6 km/h 6 km/h 58 % 0 mm
19:15 -13.7 °C -18 °C 34533.8 hPa WSW 3.1 km/h 3.1 km/h 58 % 0 mm
19:25 -13.7 °C -18 °C 34533.8 hPa West 6 km/h 6 km/h 58 % 0 mm
19:30 -13.7 °C -18 °C 34533.8 hPa WSW 6 km/h 6 km/h 58 % 0 mm
19:35 -13.7 °C -17.9 °C 34533.8 hPa WSW 3.1 km/h 3.1 km/h 58 % 0 mm
19:45 -13.7 °C -18 °C 34496.6 hPa WSW 3.1 km/h   58 % 0 mm
19:50 -13.7 °C -18 °C 34496.6 hPa WSW 3.1 km/h   58 % 0 mm
22:29 -14.5 °C -18 °C 34533.8 hPa NNE 3.1 km/h   64 % 0 mm
22:34 -14.5 °C -18 °C 34533.8 hPa Calm     64 % 0 mm
22:39 -14.5 °C -18 °C 34533.8 hPa NE 3.7 km/h 3.7 km/h 64 % 0 mm
22:44 -14.6 °C -18.1 °C 34533.8 hPa NE 3.7 km/h 3.7 km/h 64 % 0 mm
22:49 -14.6 °C -18.1 °C 34533.8 hPa NE 3.1 km/h 3.1 km/h 64 % 0 mm
22:54 -14.6 °C -18.1 °C 34533.8 hPa Calm     64 % 0 mm
22:59 -14.7 °C -18.2 °C 34496.6 hPa Calm     64 % 0 mm
23:04 -14.7 °C -18.2 °C 34496.6 hPa Calm     64 % 0 mm
23:09 -14.7 °C -18.2 °C 34496.6 hPa Calm     64 % 0 mm
23:14 -14.7 °C -18.2 °C 34533.8 hPa Calm     64 % 0 mm
23:19 -14.7 °C -18.2 °C 34533.8 hPa Calm     64 % 0 mm
23:29 -14.7 °C -18.2 °C 34496.6 hPa ENE 6 km/h 6 km/h 64 % 0 mm
23:34 -14.7 °C -18.2 °C 34496.6 hPa Calm     64 % 0 mm
23:39 -14.8 °C -18.3 °C 34496.6 hPa Calm     64 % 0 mm
23:44 -14.8 °C -18.3 °C 34496.6 hPa WSW 3.1 km/h   64 % 0 mm
23:49 -14.8 °C -18.3 °C 34496.6 hPa WSW 3.7 km/h 3.7 km/h 64 % 0 mm
23:54 -14.8 °C -18.3 °C 34496.6 hPa WSW 6 km/h 6 km/h 64 % 0 mm
23:59 -14.8 °C -18.3 °C 34496.6 hPa SW 3.1 km/h   64 % 0 mm
Meteo Sesrovires
Elogis d' Weather Underground - 3.25 mb

Guio original per  Jim McMurry - jmcmurry@mwt.net Adaptat per a la plantilla per  Wim van der Kuil - Leuven-Template.eu

Trobareu la nostra informacio del temps tambe a:

Weather Underground

AWEKAS